Time;durP1;ratioP1;P1;durP2;ratioP2;P2;SDS_P1;SDS_P2;PMS_P1;PMS_P2;Temp;Humidity;BMP_temperature;BMP_pressure;BME280_temperature;BME280_humidity;BME280_pressure;Samples;Min_cycle;Max_cycle;Signal;HPM_P1;HPM_P2
2022/01/17 00:01:45;;;;;;;107.13;33.67;;;;;;;2.73;82.19;101411.44;4951175;28;20094;-87
2022/01/17 00:04:12;;;;;;;91.00;31.17;;;;;;;2.76;82.39;101416.56;4940218;28;20040;-88
2022/01/17 00:06:41;;;;;;;101.30;33.45;;;;;;;2.79;82.16;101413.84;4908855;28;20050;-85
2022/01/17 00:09:07;;;;;;;108.60;34.28;;;;;;;2.84;82.05;101424.22;4943309;28;20061;-88
2022/01/17 00:11:35;;;;;;;108.68;34.38;;;;;;;2.78;81.88;101435.75;4930167;28;20042;-87
2022/01/17 00:14:04;;;;;;;87.70;29.60;;;;;;;2.79;82.03;101431.34;4932046;28;20066;-87
2022/01/17 00:16:41;;;;;;;111.13;34.67;;;;;;;2.76;82.22;101427.06;4934852;28;20386;-87
2022/01/17 00:21:50;;;;;;;105.28;32.78;;;;;;;2.78;82.28;101430.50;4957557;28;20058;-87
2022/01/17 00:24:21;;;;;;;97.68;31.83;;;;;;;2.79;82.04;101429.59;4931571;28;20051;-88
2022/01/17 00:26:48;;;;;;;106.20;33.35;;;;;;;2.79;82.25;101436.59;4960950;28;20042;-88
2022/01/17 00:29:15;;;;;;;103.00;32.20;;;;;;;2.79;82.33;101452.34;4962422;28;20058;-88
2022/01/17 00:31:41;;;;;;;103.72;31.75;;;;;;;2.81;82.37;101451.41;4949225;28;20058;-88
2022/01/17 00:34:08;;;;;;;87.55;29.00;;;;;;;2.79;82.19;101440.09;4947317;28;20157;-87
2022/01/17 00:36:35;;;;;;;101.47;31.85;;;;;;;2.79;82.11;101433.97;4962686;28;20049;-88
2022/01/17 00:39:02;;;;;;;90.15;30.55;;;;;;;2.78;82.17;101441.00;4966280;28;20055;-88
2022/01/17 00:41:29;;;;;;;89.88;29.45;;;;;;;2.78;82.05;101456.75;4965506;28;20059;-88
2022/01/17 00:43:55;;;;;;;65.00;22.02;;;;;;;2.82;82.26;101452.25;4958835;28;20113;-89
2022/01/17 00:46:22;;;;;;;89.05;26.17;;;;;;;2.85;82.37;101448.66;4963775;28;20039;-88
2022/01/17 00:48:51;;;;;;;79.43;28.13;;;;;;;2.86;82.27;101446.00;4933212;28;20500;-87
2022/01/17 00:51:19;;;;;;;101.97;29.17;;;;;;;2.88;82.15;101452.06;4963414;28;20097;-88
2022/01/17 00:53:45;;;;;;;93.05;30.88;;;;;;;2.88;82.46;101446.84;4959924;28;20386;-86
2022/01/17 00:56:13;;;;;;;104.15;33.85;;;;;;;2.91;82.36;101445.88;4973058;28;20434;-88
2022/01/17 00:58:40;;;;;;;98.05;31.42;;;;;;;2.88;82.17;101433.72;4989449;28;20583;-88
2022/01/17 01:01:07;;;;;;;90.70;29.75;;;;;;;2.88;82.15;101446.84;4950881;28;20097;-87
2022/01/17 01:03:34;;;;;;;109.45;31.73;;;;;;;2.90;82.26;101445.03;4974671;28;20039;-88
2022/01/17 01:06:04;;;;;;;85.25;28.52;;;;;;;2.89;82.06;101435.41;4949308;28;20546;-87
2022/01/17 01:08:31;;;;;;;111.75;34.05;;;;;;;2.91;82.42;101443.25;4955732;28;20055;-87
2022/01/17 01:10:58;;;;;;;102.65;32.88;;;;;;;2.92;82.20;101442.34;4980448;28;20402;-87
2022/01/17 01:13:28;;;;;;;94.03;28.35;;;;;;;2.91;82.31;101451.13;4966756;28;20631;-88
2022/01/17 01:16:11;;;;;;;89.45;28.80;;;;;;;2.91;82.26;101451.13;4967565;28;20054;-87
2022/01/17 01:18:55;;;;;;;67.30;21.20;;;;;;;2.90;82.32;101446.75;4959779;28;20438;-84
2022/01/17 01:29:20;;;;;;;95.38;26.13;;;;;;;2.89;82.51;101432.78;4942343;28;20051;-87
2022/01/17 01:31:55;;;;;;;86.30;29.73;;;;;;;2.91;82.36;101424.88;4949031;28;20495;-88
2022/01/17 01:34:32;;;;;;;104.85;34.72;;;;;;;2.90;82.12;101434.53;4918847;28;20057;-87
2022/01/17 01:36:59;;;;;;;105.35;30.13;;;;;;;2.90;82.30;101442.41;4927255;28;20383;-88
2022/01/17 01:39:25;;;;;;;96.18;28.50;;;;;;;2.90;82.30;101441.50;4979814;28;20093;-87
2022/01/17 01:41:54;;;;;;;111.05;33.10;;;;;;;2.90;82.10;101452.00;4966965;28;20042;-88
2022/01/17 01:44:22;;;;;;;104.72;32.45;;;;;;;2.87;81.71;101441.63;4979179;28;20159;-87
2022/01/17 01:46:51;;;;;;;106.72;32.67;;;;;;;2.85;81.87;101446.94;4948552;28;20047;-89
2022/01/17 01:49:18;;;;;;;106.90;32.33;;;;;;;2.82;81.78;101440.00;4959777;28;20046;-87
2022/01/17 01:51:46;;;;;;;112.20;34.15;;;;;;;2.85;82.14;101436.44;4950298;28;20051;-88
2022/01/17 01:54:13;;;;;;;94.68;29.70;;;;;;;2.87;82.11;101439.00;4961038;28;20050;-83
2022/01/17 01:56:48;;;;;;;103.38;32.67;;;;;;;2.82;81.84;101447.88;4945742;28;20058;-88
2022/01/17 01:59:19;;;;;;;105.93;31.50;;;;;;;2.87;81.78;101459.97;4947650;28;20043;-88
2022/01/17 02:01:47;;;;;;;110.47;32.30;;;;;;;2.83;81.58;101454.84;4929229;28;20043;-88
2022/01/17 02:04:15;;;;;;;100.47;30.13;;;;;;;2.85;81.70;101457.44;4943521;28;20039;-88
2022/01/17 02:06:42;;;;;;;109.82;33.45;;;;;;;2.86;81.79;101455.66;4934840;28;20131;-87
2022/01/17 02:09:08;;;;;;;121.28;35.20;;;;;;;2.87;81.98;101465.22;4927035;28;20059;-82
2022/01/17 02:11:36;;;;;;;101.57;33.05;;;;;;;2.89;81.71;101460.81;4965887;28;20047;-89
2022/01/17 02:14:04;;;;;;;103.43;31.38;;;;;;;2.89;81.85;101469.53;4936376;28;20043;-87
2022/01/17 02:16:31;;;;;;;107.63;31.55;;;;;;;2.89;81.85;101476.53;4946197;28;20053;-87
2022/01/17 02:18:59;;;;;;;107.50;33.28;;;;;;;2.88;81.80;101485.34;4927865;28;20364;-87
2022/01/17 02:21:46;;;;;;;104.72;32.47;;;;;;;2.84;81.64;101479.31;4961358;28;20054;-87
2022/01/17 02:24:16;;;;;;;116.65;34.58;;;;;;;2.86;81.89;101479.25;4946247;28;20043;-87
2022/01/17 02:26:45;;;;;;;111.20;34.25;;;;;;;2.86;81.49;101477.50;4954510;28;20054;-87
2022/01/17 02:29:13;;;;;;;109.07;29.85;;;;;;;2.86;81.69;101474.88;4919740;28;20051;-87
2022/01/17 02:31:40;;;;;;;103.60;32.78;;;;;;;2.87;81.65;101466.09;4936675;28;20046;-88
2022/01/17 02:34:09;;;;;;;127.38;37.38;;;;;;;2.97;80.86;101464.03;4964894;28;20051;-87
2022/01/17 02:36:35;;;;;;;112.97;33.10;;;;;;;2.87;81.16;101462.59;4946670;28;20433;-87
2022/01/17 02:39:03;;;;;;;113.22;32.55;;;;;;;2.81;81.54;101453.16;4948004;28;20055;-87
2022/01/17 02:41:33;;;;;;;110.97;31.25;;;;;;;2.84;81.58;101455.69;4949678;28;20054;-87
2022/01/17 02:44:01;;;;;;;115.78;34.20;;;;;;;2.87;81.42;101465.22;4963426;28;20049;-87
2022/01/17 02:46:29;;;;;;;93.85;27.00;;;;;;;2.89;81.73;101463.44;4933145;28;20101;-88
2022/01/17 02:48:58;;;;;;;108.75;31.70;;;;;;;2.89;81.69;101468.66;4963791;28;20055;-87
2022/01/17 02:51:25;;;;;;;125.53;37.00;;;;;;;2.90;81.72;101475.63;4929072;28;20138;-88
2022/01/17 02:53:52;;;;;;;109.57;33.65;;;;;;;2.88;81.16;101464.34;4932549;28;20040;-87
2022/01/17 02:56:20;;;;;;;111.82;32.17;;;;;;;2.88;81.40;101465.19;4933323;28;20047;-88
2022/01/17 02:58:46;;;;;;;126.50;36.30;;;;;;;2.86;81.25;101453.88;4938839;28;20058;-86
2022/01/17 03:01:20;;;;;;;127.68;34.80;;;;;;;2.82;81.15;101460.13;4945318;28;20051;-88
2022/01/17 03:03:47;;;;;;;116.40;34.13;;;;;;;2.86;81.48;101458.28;4931079;28;20055;-87
2022/01/17 03:06:16;;;;;;;117.50;33.03;;;;;;;2.86;81.53;101448.63;4946868;28;20058;-88
2022/01/17 03:08:43;;;;;;;116.35;35.83;;;;;;;2.88;81.66;101451.22;4945561;28;20051;-88
2022/01/17 03:11:13;;;;;;;110.28;32.78;;;;;;;2.84;81.26;101439.94;4927100;28;20055;-88
2022/01/17 03:13:40;;;;;;;111.68;32.33;;;;;;;2.86;81.25;101447.78;4942636;28;20163;-88
2022/01/17 03:16:10;;;;;;;115.40;34.83;;;;;;;2.86;81.25;101448.63;4940972;28;20052;-88
2022/01/17 03:18:46;;;;;;;79.32;23.73;;;;;;;2.87;81.16;101465.22;4931202;28;20051;-88
2022/01/17 03:21:14;;;;;;;116.53;33.70;;;;;;;2.89;81.29;101472.16;4931588;28;20429;-88
2022/01/17 03:23:41;;;;;;;99.35;28.83;;;;;;;2.89;81.39;101461.66;4943501;28;20055;-88
2022/01/17 03:26:08;;;;;;;112.05;32.13;;;;;;;2.90;81.29;101466.00;4947282;28;20850;-87
2022/01/17 03:28:35;;;;;;;114.40;32.97;;;;;;;2.92;81.46;101469.41;4943537;28;20043;-88
2022/01/17 03:31:04;;;;;;;101.10;30.70;;;;;;;2.92;81.32;101465.94;4916416;28;20038;-88
2022/01/17 03:33:31;;;;;;;107.32;31.33;;;;;;;2.92;81.37;101471.19;4964898;28;20042;-89
2022/01/17 03:35:58;;;;;;;109.13;32.13;;;;;;;2.92;81.27;101474.66;4948304;28;20098;-88
2022/01/17 03:38:28;;;;;;;116.05;30.92;;;;;;;2.92;81.10;101471.19;4979858;28;20047;-88
2022/01/17 03:40:57;;;;;;;113.68;33.05;;;;;;;2.89;81.14;101469.53;4967254;28;20093;-87
2022/01/17 03:43:25;;;;;;;97.10;29.27;;;;;;;2.90;81.18;101466.00;4952773;28;20054;-88
2022/01/17 03:45:51;;;;;;;85.63;26.27;;;;;;;2.90;81.29;101463.38;4963085;28;20046;-88
2022/01/17 03:48:19;;;;;;;86.45;27.30;;;;;;;2.93;81.21;101462.44;4962616;28;20469;-88
2022/01/17 03:50:47;;;;;;;94.45;28.65;;;;;;;2.93;81.25;101465.06;4986335;28;20062;-88
2022/01/17 03:53:14;;;;;;;98.00;26.52;;;;;;;2.95;81.23;101450.09;4943025;28;20042;-88
2022/01/17 03:55:42;;;;;;;106.13;31.25;;;;;;;2.94;81.19;101444.00;4962073;28;20043;-88
2022/01/17 03:58:09;;;;;;;103.82;29.50;;;;;;;2.97;81.07;101437.81;4981377;28;20054;-88
2022/01/17 04:00:41;;;;;;;109.75;29.70;;;;;;;2.95;81.19;101432.63;4961344;28;21052;-89
2022/01/17 04:03:09;;;;;;;112.65;31.65;;;;;;;2.91;81.23;101417.88;4964261;28;20050;-88
2022/01/17 04:05:36;;;;;;;119.00;32.22;;;;;;;2.93;81.14;101400.31;4930398;28;20046;-88
2022/01/17 04:08:03;;;;;;;99.18;28.27;;;;;;;2.98;80.95;101405.44;4959228;28;20050;-88
2022/01/17 04:10:29;;;;;;;99.93;30.15;;;;;;;2.91;80.83;101430.13;4962087;28;20045;-88
2022/01/17 04:13:01;;;;;;;105.40;31.67;;;;;;;2.91;81.13;101457.22;4937545;28;20050;-88
2022/01/17 04:15:28;;;;;;;103.10;30.30;;;;;;;2.91;81.15;101461.63;4945459;28;20047;-88
2022/01/17 04:17:56;;;;;;;102.63;30.70;;;;;;;2.92;80.87;101466.81;4949355;28;20387;-87
2022/01/17 04:20:27;;;;;;;101.15;30.92;;;;;;;2.91;81.07;101449.34;4964863;28;20054;-88
2022/01/17 04:23:02;;;;;;;111.30;32.38;;;;;;;2.91;81.08;101445.88;4953575;28;20759;-87
2022/01/17 04:25:30;;;;;;;105.22;32.20;;;;;;;2.93;81.12;101455.41;4952620;28;20047;-88
2022/01/17 04:27:58;;;;;;;112.45;32.90;;;;;;;2.94;81.03;101444.00;4947880;28;20057;-86
2022/01/17 04:30:27;;;;;;;93.13;27.85;;;;;;;2.95;81.06;101445.75;4964513;28;20498;-88
2022/01/17 04:32:55;;;;;;;102.63;27.75;;;;;;;2.95;81.04;101457.97;4913304;28;20058;-88
2022/01/17 04:35:22;;;;;;;93.53;29.45;;;;;;;2.96;81.04;101463.19;4944771;28;20062;-88
2022/01/17 04:37:51;;;;;;;105.13;32.28;;;;;;;2.95;81.14;101474.59;4913028;28;20043;-87
2022/01/17 04:40:18;;;;;;;110.93;31.83;;;;;;;2.95;81.15;101477.22;4947838;28;20764;-82
2022/01/17 04:42:48;;;;;;;74.95;24.45;;;;;;;2.95;80.96;101465.84;4928248;28;20042;-88
2022/01/17 04:45:17;;;;;;;73.85;26.05;;;;;;;2.97;80.99;101471.91;4931488;28;20542;-88
2022/01/17 04:47:48;;;;;;;99.63;28.90;;;;;;;2.96;81.14;101471.06;4944818;28;20036;-88
2022/01/17 04:50:21;;;;;;;99.32;29.48;;;;;;;2.92;81.08;101463.31;4955286;28;20537;-87
2022/01/17 04:52:48;;;;;;;;;;;;;;;2.83;81.31;101460.09;4936994;28;20555;-89
2022/01/17 04:55:18;;;;;;;99.88;30.67;;;;;;;2.93;80.90;101451.94;4914265;28;19928;-87
2022/01/17 04:58:12;;;;;;;88.53;26.23;;;;;;;2.88;80.71;101448.59;4947128;28;20043;-88
2022/01/17 05:00:46;;;;;;;105.78;31.13;;;;;;;2.94;80.82;101444.00;4934154;28;20396;-88
2022/01/17 05:03:18;;;;;;;101.35;32.13;;;;;;;2.92;81.02;101443.19;4978936;28;20503;-88
2022/01/17 05:05:46;;;;;;;93.00;27.45;;;;;;;2.93;81.05;101458.03;4934900;28;20050;-88
2022/01/17 05:08:14;;;;;;;94.88;27.13;;;;;;;2.93;80.82;101463.28;4940658;28;20402;-87
2022/01/17 05:10:49;;;;;;;83.28;25.05;;;;;;;2.92;80.99;101466.81;4957305;28;20043;-87
2022/01/17 05:13:21;;;;;;;87.03;24.80;;;;;;;2.92;80.95;101461.56;4970381;28;20046;-88
2022/01/17 05:15:54;;;;;;;86.53;27.73;;;;;;;2.94;81.02;101462.38;4958820;28;20039;-87
2022/01/17 05:21:10;;;;;;;93.63;28.92;;;;;;;2.93;81.20;101446.69;4917014;28;20486;-89
2022/01/17 05:23:39;;;;;;;93.38;27.55;;;;;;;2.95;80.92;101448.38;4951471;28;20039;-88
2022/01/17 05:26:06;;;;;;;82.93;25.33;;;;;;;2.94;80.85;101454.50;4954733;28;20054;-88
2022/01/17 05:28:33;;;;;;;84.75;26.15;;;;;;;2.95;80.81;101455.34;4943976;28;20050;-88
2022/01/17 05:31:00;;;;;;;93.07;27.13;;;;;;;2.96;80.89;101460.56;4967637;28;20053;-88
2022/01/17 05:33:27;;;;;;;84.20;27.10;;;;;;;2.97;80.80;101457.03;4961400;28;20147;-89
2022/01/17 05:35:53;;;;;;;84.80;26.48;;;;;;;2.96;80.88;101460.56;4966237;28;20125;-89
2022/01/17 05:38:20;;;;;;;81.45;26.35;;;;;;;2.92;80.75;101456.31;4961000;28;20046;-89
2022/01/17 05:40:47;;;;;;;79.63;25.15;;;;;;;2.95;80.80;101463.22;4965407;28;20047;-87
2022/01/17 05:43:18;;;;;;;80.82;24.38;;;;;;;2.92;80.72;101464.19;4955067;28;20047;-88
2022/01/17 05:45:45;;;;;;;80.00;24.27;;;;;;;2.95;80.81;101478.97;4979287;28;20066;-89
2022/01/17 05:48:11;;;;;;;84.85;26.48;;;;;;;2.97;80.74;101479.78;4957763;28;20064;-89
2022/01/17 05:50:38;;;;;;;87.70;24.30;;;;;;;2.95;80.89;101498.22;4957912;28;20043;-86
2022/01/17 06:02:54;;;;;;;80.60;26.00;;;;;;;2.84;80.91;101508.16;4944294;28;20595;-88
2022/01/17 06:05:21;;;;;;;80.72;25.10;;;;;;;2.87;80.79;101508.06;4962951;28;20070;-87
2022/01/17 06:07:50;;;;;;;83.45;25.10;;;;;;;2.88;80.69;101503.69;4963086;28;20046;-88
2022/01/17 06:10:16;;;;;;;79.38;24.80;;;;;;;2.90;80.75;101504.47;4969430;28;20047;-90
2022/01/17 06:12:43;;;;;;;75.45;22.05;;;;;;;2.91;80.98;101491.34;4965126;28;20051;-80
2022/01/17 06:15:10;;;;;;;49.67;18.63;;;;;;;2.93;80.79;101486.06;4986716;28;20051;-89
2022/01/17 06:21:44;;;;;;;80.72;24.98;;;;;;;2.90;81.00;101504.47;4918565;28;20031;-87
2022/01/17 06:25:09;;;;;;;82.57;25.52;;;;;;;2.85;80.66;101514.25;4973218;28;20048;-89
2022/01/17 06:27:38;;;;;;;83.80;26.13;;;;;;;2.90;80.88;101531.59;4939814;28;20042;-89
2022/01/17 06:30:13;;;;;;;78.35;24.35;;;;;;;2.91;80.78;101543.81;4923602;28;20051;-91
2022/01/17 06:32:43;;;;;;;82.30;27.00;;;;;;;3.10;79.40;101559.00;4916058;28;20047;-88
2022/01/17 06:35:11;;;;;;;77.82;24.45;;;;;;;2.88;79.96;101554.41;4920533;28;20607;-87
2022/01/17 06:37:39;;;;;;;76.63;23.55;;;;;;;2.88;80.54;101545.69;4921372;28;20045;-85
2022/01/17 06:40:07;;;;;;;71.97;22.42;;;;;;;2.88;80.56;101494.06;4931986;28;20062;-86
2022/01/17 06:42:34;;;;;;;71.75;22.05;;;;;;;2.91;80.60;101499.19;4914129;29;20043;-86
2022/01/17 06:45:04;;;;;;;82.13;25.73;;;;;;;2.90;80.85;101515.88;4927108;28;20059;-85
2022/01/17 06:47:40;;;;;;;71.35;22.10;;;;;;;2.87;80.54;101510.69;4924799;29;20183;-86
2022/01/17 06:50:08;;;;;;;73.45;24.10;;;;;;;2.92;80.66;101492.19;4926608;29;20047;-85
2022/01/17 06:52:35;;;;;;;66.47;21.88;;;;;;;2.93;80.66;101475.56;4928130;28;20671;-86
2022/01/17 06:55:06;;;;;;;61.92;20.30;;;;;;;2.95;80.75;101455.34;4944572;28;20556;-87
2022/01/17 06:57:33;;;;;;;69.88;22.08;;;;;;;2.99;80.63;101447.34;4932108;28;20043;-87
2022/01/17 07:00:00;;;;;;;69.07;22.35;;;;;;;2.96;80.73;101475.47;4902410;28;20046;-86
2022/01/17 07:02:26;;;;;;;75.47;23.40;;;;;;;2.94;80.71;101485.13;4965415;28;20415;-86
2022/01/17 07:04:54;;;;;;;65.63;20.70;;;;;;;2.94;80.50;101477.25;4967583;28;20042;-86
2022/01/17 07:07:21;;;;;;;67.93;22.25;;;;;;;2.94;80.57;101477.25;4966299;28;20043;-85
2022/01/17 07:09:49;;;;;;;67.32;21.48;;;;;;;2.95;80.65;101489.47;4980800;28;20073;-86
2022/01/17 07:12:16;;;;;;;73.18;23.83;;;;;;;2.95;80.79;101520.94;4980387;28;20054;-85
2022/01/17 07:14:43;;;;;;;80.68;24.83;;;;;;;2.97;80.61;101542.75;4978404;28;20093;-85
2022/01/17 07:17:11;;;;;;;65.97;22.95;;;;;;;2.96;80.41;101562.91;4962983;28;20061;-84
2022/01/17 07:20:05;;;;;;;75.00;25.58;;;;;;;2.87;80.65;101592.00;4955580;28;20053;-85
2022/01/17 07:22:32;;;;;;;;;;;;;;;2.79;80.73;101583.50;4940878;28;20062;-76
2022/01/17 07:25:00;;;;;;;57.55;18.58;;;;;;;2.89;80.91;101612.97;4967682;28;20405;-76
2022/01/17 07:27:32;;;;;;;65.05;22.00;;;;;;;2.91;80.73;101635.66;4943013;28;20135;-76
2022/01/17 07:29:59;;;;;;;65.70;22.60;;;;;;;2.95;80.74;101626.78;4943513;28;20418;-76
2022/01/17 07:32:26;;;;;;;70.05;22.77;;;;;;;2.96;80.79;101614.53;4954723;28;20047;-76
2022/01/17 07:34:54;;;;;;;72.40;22.38;;;;;;;2.95;80.58;101595.31;4943691;28;20105;-76
2022/01/17 07:37:20;;;;;;;61.85;20.20;;;;;;;2.97;80.83;101603.97;4959041;28;20047;-76
2022/01/17 07:39:48;;;;;;;70.78;21.40;;;;;;;2.97;80.85;101597.88;4924885;28;20048;-75
2022/01/17 07:42:15;;;;;;;63.95;19.88;;;;;;;2.98;80.85;101591.75;4945277;28;20071;-76
2022/01/17 07:44:52;;;;;;;58.78;20.52;;;;;;;2.97;80.69;101582.97;4943877;28;20055;-76
2022/01/17 07:47:25;;;;;;;67.95;22.52;;;;;;;2.98;80.69;101586.50;4955401;28;20130;-76
2022/01/17 07:49:52;;;;;;;64.43;21.45;;;;;;;2.99;80.66;101590.81;4963352;28;20050;-76
2022/01/17 07:52:34;;;;;;;67.30;22.92;;;;;;;2.99;80.43;101585.56;4933709;28;20069;-76
2022/01/17 07:55:00;;;;;;;72.20;23.13;;;;;;;3.03;80.27;101572.31;4948224;28;20043;-76
2022/01/17 07:57:27;;;;;;;66.47;21.10;;;;;;;2.98;80.40;101570.75;4928663;28;20049;-76
2022/01/17 07:59:54;;;;;;;63.92;21.27;;;;;;;2.93;80.43;101567.41;4941358;28;20653;-75
2022/01/17 08:02:20;;;;;;;77.30;23.23;;;;;;;3.00;80.44;101567.16;4944248;28;20134;-75
2022/01/17 08:04:48;;;;;;;64.65;22.00;;;;;;;2.96;80.52;101557.66;4957440;28;20047;-76
2022/01/17 08:07:15;;;;;;;69.95;23.85;;;;;;;2.95;80.61;101576.94;4938672;28;20051;-75
2022/01/17 08:09:44;;;;;;;74.00;21.42;;;;;;;2.98;80.43;101584.72;4937228;28;20051;-75
2022/01/17 08:12:10;;;;;;;68.97;23.05;;;;;;;2.98;80.29;101586.50;4940018;28;20479;-76
2022/01/17 08:14:39;;;;;;;63.92;21.10;;;;;;;3.00;80.72;101584.66;4951157;28;20537;-76
2022/01/17 08:17:06;;;;;;;67.47;21.70;;;;;;;3.01;80.64;101596.88;4947643;28;20042;-75
2022/01/17 08:19:34;;;;;;;69.40;20.85;;;;;;;3.00;80.59;101598.66;4961962;28;20054;-76
2022/01/17 08:22:02;;;;;;;74.22;22.88;;;;;;;3.00;80.53;101597.78;4946083;28;20051;-76
2022/01/17 08:24:30;;;;;;;66.25;21.60;;;;;;;3.00;80.67;101606.53;4945235;28;20201;-76
2022/01/17 08:27:00;;;;;;;65.60;21.77;;;;;;;2.99;80.58;101612.66;4939042;28;20065;-76
2022/01/17 08:29:28;;;;;;;74.30;22.85;;;;;;;2.98;80.66;101634.56;4941793;28;20046;-76
2022/01/17 08:31:56;;;;;;;69.35;20.25;;;;;;;3.01;80.70;101623.13;4951404;28;20513;-76
2022/01/17 08:34:23;;;;;;;68.43;23.70;;;;;;;2.99;81.07;101619.69;4926406;28;20102;-76
2022/01/17 08:36:50;;;;;;;63.20;20.92;;;;;;;3.04;80.71;101609.91;4944738;28;20453;-77
2022/01/17 08:39:17;;;;;;;63.70;21.00;;;;;;;3.05;80.81;101598.50;4943820;28;20058;-76
2022/01/17 08:41:44;;;;;;;61.50;20.63;;;;;;;3.07;80.85;101601.94;4943575;28;20049;-76
2022/01/17 08:44:14;;;;;;;53.42;19.05;;;;;;;3.08;80.88;101574.81;4933135;28;20058;-77
2022/01/17 08:46:43;;;;;;;53.83;17.88;;;;;;;3.09;80.83;101565.16;4937186;28;20060;-76
2022/01/17 08:49:10;;;;;;;62.35;21.15;;;;;;;3.16;80.76;101574.59;4942997;28;20118;-76
2022/01/17 08:51:37;;;;;;;68.50;21.50;;;;;;;3.08;80.67;101572.19;4956139;28;20127;-76
2022/01/17 08:54:06;;;;;;;67.30;22.15;;;;;;;3.09;80.66;101580.91;4954122;28;20062;-76
2022/01/17 08:56:33;;;;;;;60.53;20.27;;;;;;;3.13;80.52;101583.41;4944813;28;20070;-76
2022/01/17 08:59:02;;;;;;;60.92;20.33;;;;;;;3.10;80.69;101583.47;4946242;28;20406;-76
2022/01/17 09:01:29;;;;;;;65.45;20.08;;;;;;;3.10;80.57;101580.84;4942731;28;20055;-76
2022/01/17 09:03:56;;;;;;;66.65;22.60;;;;;;;3.08;80.30;101580.06;4943087;28;20490;-76
2022/01/17 09:06:23;;;;;;;64.88;20.50;;;;;;;3.09;80.57;101601.91;4942456;28;20047;-76
2022/01/17 09:08:50;;;;;;;59.30;19.77;;;;;;;3.10;80.78;101608.88;4942945;28;20043;-76
2022/01/17 09:11:18;;;;;;;66.85;21.13;;;;;;;3.06;80.72;101618.63;4944811;28;20447;-76
2022/01/17 09:13:47;;;;;;;58.55;21.67;;;;;;;3.04;80.80;101618.66;4940886;28;20490;-77
2022/01/17 09:16:14;;;;;;;64.13;20.02;;;;;;;3.07;80.71;101620.31;4967639;28;20075;-76
2022/01/17 09:18:41;;;;;;;68.65;21.67;;;;;;;3.08;80.88;101616.81;4957777;28;20058;-77
2022/01/17 09:21:09;;;;;;;63.72;21.30;;;;;;;3.07;80.56;101611.59;4945691;28;20043;-77
2022/01/17 09:23:37;;;;;;;64.13;22.83;;;;;;;3.06;80.81;101612.50;4951160;28;20047;-77
2022/01/17 09:26:04;;;;;;;59.88;18.90;;;;;;;3.09;80.48;101622.91;4927878;28;20051;-76
2022/01/17 09:28:31;;;;;;;62.72;19.73;;;;;;;3.08;80.81;101621.19;4942380;28;20054;-77
2022/01/17 09:30:57;;;;;;;67.32;22.05;;;;;;;3.10;80.84;101635.13;4943711;28;20048;-76
2022/01/17 09:33:49;;;;;;;64.10;20.92;;;;;;;3.01;80.52;101652.00;4946855;28;20065;-77
2022/01/17 09:36:17;;;;;;;62.22;19.08;;;;;;;3.09;80.93;101664.91;4947579;28;20043;-76
2022/01/17 09:38:43;;;;;;;63.65;21.20;;;;;;;3.12;80.84;101673.53;4962679;28;20062;-76
2022/01/17 09:41:11;;;;;;;62.78;20.10;;;;;;;3.15;80.74;101680.47;4950135;28;20043;-77
2022/01/17 09:44:13;;;;;;;65.30;20.33;;;;;;;3.05;80.67;101679.88;4954720;28;22438;-77
2022/01/17 09:46:44;;;;;;;63.30;19.70;;;;;;;3.15;81.06;101689.19;4950959;28;20083;-75
2022/01/17 09:49:25;;;;;;;61.55;20.75;;;;;;;3.15;80.97;101675.22;4960196;28;20495;-75
2022/01/17 09:54:30;;;;;;;62.92;22.40;;;;;;;3.18;81.06;101689.16;4946545;28;20394;-75
2022/01/17 09:56:58;;;;;;;59.45;19.73;;;;;;;3.19;80.86;101679.50;4967058;28;20506;-76
2022/01/17 09:59:25;;;;;;;62.33;20.25;;;;;;;3.22;81.01;101680.25;4962847;28;20460;-75
2022/01/17 10:01:52;;;;;;;63.65;20.23;;;;;;;3.21;80.74;101706.56;4961245;28;20054;-76
2022/01/17 10:04:19;;;;;;;65.80;21.73;;;;;;;3.20;80.83;101689.06;4952127;28;20039;-76
2022/01/17 10:06:57;;;;;;;56.58;18.95;;;;;;;3.17;80.98;101686.53;4966020;28;20051;-76
2022/01/17 10:09:25;;;;;;;67.40;22.55;;;;;;;3.24;80.81;101701.22;4939288;28;20130;-76
2022/01/17 10:12:11;;;;;;;59.35;19.70;;;;;;;3.14;80.83;101692.75;4966141;28;20047;-75
2022/01/17 10:14:45;;;;;;;63.72;20.63;;;;;;;3.24;81.01;101691.59;4942216;28;20140;-76
2022/01/17 10:17:14;;;;;;;57.55;21.40;;;;;;;3.22;80.67;101697.78;4981039;28;20051;-76
2022/01/17 10:19:43;;;;;;;58.50;20.30;;;;;;;3.21;80.74;101694.31;4962797;28;20055;-76
2022/01/17 10:22:17;;;;;;;52.05;19.05;;;;;;;3.23;80.56;101673.22;4968429;28;20124;-76
2022/01/17 10:25:03;;;;;;;63.08;22.77;;;;;;;3.25;80.88;101666.19;4965537;28;20138;-76
2022/01/17 10:28:09;;;;;;;60.28;19.88;;;;;;;3.22;80.60;101669.75;4945835;28;20058;-77
2022/01/17 10:35:37;;;;;;;62.47;21.50;;;;;;;3.20;81.02;101676.81;4961976;28;20494;-77
2022/01/17 10:38:09;;;;;;;61.72;21.02;;;;;;;3.24;80.97;101690.72;4932846;28;20059;-77
2022/01/17 10:41:05;;;;;;;63.65;21.00;;;;;;;3.18;81.09;101694.41;4930073;28;20054;-77
2022/01/17 10:43:35;;;;;;;58.97;19.33;;;;;;;3.27;81.15;101693.25;4906964;28;20058;-76
2022/01/17 10:46:08;;;;;;;56.15;19.90;;;;;;;3.26;80.98;101695.03;4922036;28;20047;-76
2022/01/17 10:48:45;;;;;;;58.42;19.45;;;;;;;3.23;81.00;101682.00;4920837;28;20071;-75
2022/01/17 10:51:14;;;;;;;58.22;19.35;;;;;;;3.28;81.06;101687.09;4940192;28;20043;-75
2022/01/17 10:53:41;;;;;;;56.13;19.38;;;;;;;3.31;80.88;101710.66;4926093;28;20063;-76
2022/01/17 10:56:10;;;;;;;51.80;18.95;;;;;;;3.29;80.85;101712.47;4925415;28;20138;-76
2022/01/17 10:58:38;;;;;;;66.80;22.27;;;;;;;3.31;80.84;101722.91;4944885;28;20062;-76
2022/01/17 11:01:11;;;;;;;54.13;18.27;;;;;;;3.25;80.85;101718.69;4934185;28;20170;-76
2022/01/17 11:03:42;;;;;;;53.53;18.52;;;;;;;3.26;81.05;101721.28;4943227;28;20130;-77
2022/01/17 11:06:11;;;;;;;58.92;20.77;;;;;;;3.28;80.80;101723.00;4906908;28;20055;-79
2022/01/17 11:08:40;;;;;;;52.08;18.42;;;;;;;3.30;81.31;101714.16;4937564;28;20046;-79
2022/01/17 11:11:09;;;;;;;59.22;20.25;;;;;;;3.30;81.17;101716.78;4975970;28;20058;-78
2022/01/17 11:13:39;;;;;;;56.25;19.80;;;;;;;3.31;81.03;101712.41;4961814;28;20471;-78
2022/01/17 11:16:10;;;;;;;58.75;19.85;;;;;;;3.32;81.22;101715.00;4974921;28;20556;-78
2022/01/17 11:18:41;;;;;;;53.95;18.52;;;;;;;3.33;81.18;101710.59;4947600;28;20047;-78
2022/01/17 11:21:13;;;;;;;62.63;20.05;;;;;;;3.32;81.03;101701.00;4948783;28;20051;-79
2022/01/17 11:23:49;;;;;;;56.40;18.63;;;;;;;3.29;80.74;101699.34;4965696;28;20058;-78
2022/01/17 11:26:16;;;;;;;58.03;19.83;;;;;;;3.32;81.28;101690.50;4973895;28;20050;-79
2022/01/17 11:28:44;;;;;;;56.38;20.15;;;;;;;3.36;81.15;101685.13;4977523;28;20042;-79
2022/01/17 11:31:14;;;;;;;58.22;20.02;;;;;;;3.34;81.13;101694.81;4973595;28;20892;-79
2022/01/17 11:33:42;;;;;;;51.88;17.90;;;;;;;3.38;81.00;101700.81;4945983;28;20051;-78
2022/01/17 11:36:09;;;;;;;62.97;20.92;;;;;;;3.38;81.20;101693.81;4962950;28;20050;-78
2022/01/17 11:38:42;;;;;;;55.85;19.15;;;;;;;3.38;81.02;101688.53;4946885;28;20039;-79
2022/01/17 11:41:29;;;;;;;49.40;17.48;;;;;;;3.38;80.98;101677.19;4932286;28;20154;-78
2022/01/17 11:43:58;;;;;;;48.30;16.85;;;;;;;3.42;81.12;101661.31;4939324;28;20108;-78
2022/01/17 11:46:30;;;;;;;56.10;19.55;;;;;;;3.43;81.37;101647.25;4941018;28;20392;-78
2022/01/17 11:49:08;;;;;;;53.35;18.83;;;;;;;3.37;81.38;101643.97;4940228;28;20521;-78
2022/01/17 11:51:39;;;;;;;58.17;18.58;;;;;;;3.49;81.24;101648.88;4936532;28;20051;-78
2022/01/17 11:54:14;;;;;;;56.47;18.35;;;;;;;3.48;81.06;101652.38;4942139;28;20560;-78
2022/01/17 11:56:54;;;;;;;54.08;17.27;;;;;;;3.47;81.10;101625.25;4954518;28;20054;-78
2022/01/17 11:59:42;;;;;;;53.67;18.52;;;;;;;3.44;80.91;101614.00;4937565;28;20047;-79
2022/01/17 12:02:24;;;;;;;44.28;15.43;;;;;;;3.47;81.35;101603.41;4947217;28;20051;-79